sensor_id;sensor_type;location;lat;lon;timestamp;pressure;altitude;pressure_sealevel;temperature;humidity
54918;BME280;40818;50.562;7.454;2023-04-02T00:02:48;96778.44;;;6.79;100.00
54918;BME280;40818;50.562;7.454;2023-04-02T00:13:03;96784.97;;;6.84;100.00
54918;BME280;40818;50.562;7.454;2023-04-02T00:23:12;96804.91;;;6.55;100.00
54918;BME280;40818;50.562;7.454;2023-04-02T00:33:17;96820.63;;;6.38;100.00
54918;BME280;40818;50.562;7.454;2023-04-02T00:43:25;96825.59;;;6.41;100.00
54918;BME280;40818;50.562;7.454;2023-04-02T00:53:30;96825.28;;;6.45;100.00
54918;BME280;40818;50.562;7.454;2023-04-02T01:03:37;96829.88;;;6.55;100.00
54918;BME280;40818;50.562;7.454;2023-04-02T01:13:46;96838.09;;;6.47;100.00
54918;BME280;40818;50.562;7.454;2023-04-02T01:24:03;96848.91;;;6.39;100.00
54918;BME280;40818;50.562;7.454;2023-04-02T01:34:13;96863.00;;;6.19;100.00
54918;BME280;40818;50.562;7.454;2023-04-02T01:44:22;96880.25;;;6.04;100.00
54918;BME280;40818;50.562;7.454;2023-04-02T01:54:31;96889.19;;;5.98;100.00
54918;BME280;40818;50.562;7.454;2023-04-02T02:04:38;96905.97;;;5.90;100.00
54918;BME280;40818;50.562;7.454;2023-04-02T02:14:49;96920.50;;;5.91;100.00
54918;BME280;40818;50.562;7.454;2023-04-02T02:24:59;96931.63;;;5.91;100.00
54918;BME280;40818;50.562;7.454;2023-04-02T02:35:11;96949.94;;;5.87;100.00
54918;BME280;40818;50.562;7.454;2023-04-02T02:45:21;96962.81;;;5.87;100.00
54918;BME280;40818;50.562;7.454;2023-04-02T02:55:32;96978.28;;;5.87;100.00
54918;BME280;40818;50.562;7.454;2023-04-02T03:05:53;96998.88;;;5.87;100.00
54918;BME280;40818;50.562;7.454;2023-04-02T03:16:03;97004.09;;;6.01;100.00
54918;BME280;40818;50.562;7.454;2023-04-02T03:26:14;97019.41;;;6.19;100.00
54918;BME280;40818;50.562;7.454;2023-04-02T03:36:26;97039.88;;;6.36;100.00
54918;BME280;40818;50.562;7.454;2023-04-02T03:46:34;97051.38;;;6.30;100.00
54918;BME280;40818;50.562;7.454;2023-04-02T03:56:43;97070.28;;;6.15;100.00
54918;BME280;40818;50.562;7.454;2023-04-02T04:06:56;97083.22;;;5.99;100.00
54918;BME280;40818;50.562;7.454;2023-04-02T04:17:10;97104.22;;;5.91;100.00
54918;BME280;40818;50.562;7.454;2023-04-02T04:27:23;97118.41;;;6.00;100.00
54918;BME280;40818;50.562;7.454;2023-04-02T04:37:39;97141.41;;;6.03;100.00
54918;BME280;40818;50.562;7.454;2023-04-02T04:47:49;97150.47;;;5.94;100.00
54918;BME280;40818;50.562;7.454;2023-04-02T04:58:02;97172.31;;;5.87;100.00
54918;BME280;40818;50.562;7.454;2023-04-02T05:08:09;97198.38;;;5.98;100.00
54918;BME280;40818;50.562;7.454;2023-04-02T05:18:25;97218.13;;;6.14;100.00
54918;BME280;40818;50.562;7.454;2023-04-02T05:28:34;97236.81;;;6.18;100.00
54918;BME280;40818;50.562;7.454;2023-04-02T05:38:46;97242.28;;;6.27;100.00
54918;BME280;40818;50.562;7.454;2023-04-02T05:48:58;97270.88;;;6.07;100.00
54918;BME280;40818;50.562;7.454;2023-04-02T05:59:10;97294.97;;;5.74;100.00
54918;BME280;40818;50.562;7.454;2023-04-02T06:09:20;97319.94;;;5.56;100.00
54918;BME280;40818;50.562;7.454;2023-04-02T06:19:32;97334.50;;;5.22;100.00
54918;BME280;40818;50.562;7.454;2023-04-02T06:29:41;97361.94;;;5.05;100.00
54918;BME280;40818;50.562;7.454;2023-04-02T06:39:54;97386.22;;;5.00;100.00
54918;BME280;40818;50.562;7.454;2023-04-02T06:50:04;97405.97;;;4.80;100.00
54918;BME280;40818;50.562;7.454;2023-04-02T07:00:23;97422.97;;;4.65;100.00
54918;BME280;40818;50.562;7.454;2023-04-02T07:10:27;97444.59;;;4.61;100.00
54918;BME280;40818;50.562;7.454;2023-04-02T07:20:34;97472.88;;;4.61;100.00
54918;BME280;40818;50.562;7.454;2023-04-02T07:30:44;97501.91;;;4.63;100.00
54918;BME280;40818;50.562;7.454;2023-04-02T07:40:51;97515.25;;;4.71;100.00
54918;BME280;40818;50.562;7.454;2023-04-02T07:50:54;97538.94;;;4.59;100.00
54918;BME280;40818;50.562;7.454;2023-04-02T08:01:00;97551.47;;;4.67;100.00
54918;BME280;40818;50.562;7.454;2023-04-02T08:11:05;97574.34;;;4.54;100.00
54918;BME280;40818;50.562;7.454;2023-04-02T08:21:11;97601.63;;;4.56;100.00
54918;BME280;40818;50.562;7.454;2023-04-02T08:31:15;97623.34;;;4.49;100.00
54918;BME280;40818;50.562;7.454;2023-04-02T08:41:22;97646.56;;;4.68;100.00
54918;BME280;40818;50.562;7.454;2023-04-02T08:51:30;97670.78;;;4.63;100.00
54918;BME280;40818;50.562;7.454;2023-04-02T09:01:43;97686.28;;;4.61;100.00
54918;BME280;40818;50.562;7.454;2023-04-02T09:11:53;97706.06;;;4.59;100.00
54918;BME280;40818;50.562;7.454;2023-04-02T09:22:06;97728.97;;;4.65;100.00
54918;BME280;40818;50.562;7.454;2023-04-02T09:32:26;97747.34;;;4.56;100.00
54918;BME280;40818;50.562;7.454;2023-04-02T09:42:37;97769.09;;;4.69;100.00
54918;BME280;40818;50.562;7.454;2023-04-02T09:52:41;97793.28;;;4.43;100.00
54918;BME280;40818;50.562;7.454;2023-04-02T10:03:00;97807.84;;;4.42;100.00
54918;BME280;40818;50.562;7.454;2023-04-02T10:13:07;97835.00;;;4.50;100.00
54918;BME280;40818;50.562;7.454;2023-04-02T10:23:16;97855.41;;;4.54;100.00
54918;BME280;40818;50.562;7.454;2023-04-02T10:33:24;97863.56;;;4.42;100.00
54918;BME280;40818;50.562;7.454;2023-04-02T10:43:41;97887.03;;;4.34;100.00
54918;BME280;40818;50.562;7.454;2023-04-02T10:53:53;97905.31;;;4.49;100.00
54918;BME280;40818;50.562;7.454;2023-04-02T11:04:01;97936.34;;;4.44;100.00
54918;BME280;40818;50.562;7.454;2023-04-02T11:14:11;97955.22;;;4.19;100.00
54918;BME280;40818;50.562;7.454;2023-04-02T11:24:29;97963.22;;;4.35;100.00
54918;BME280;40818;50.562;7.454;2023-04-02T11:45:51;97985.47;;;4.36;100.00
54918;BME280;40818;50.562;7.454;2023-04-02T11:56:07;98003.00;;;4.49;100.00
54918;BME280;40818;50.562;7.454;2023-04-02T12:06:20;98021.00;;;4.49;100.00
54918;BME280;40818;50.562;7.454;2023-04-02T12:16:25;98032.06;;;4.74;100.00
54918;BME280;40818;50.562;7.454;2023-04-02T12:26:36;98053.13;;;4.60;100.00
54918;BME280;40818;50.562;7.454;2023-04-02T12:36:50;98064.41;;;4.58;100.00
54918;BME280;40818;50.562;7.454;2023-04-02T12:46:57;98074.34;;;4.67;100.00
54918;BME280;40818;50.562;7.454;2023-04-02T12:57:29;98089.56;;;4.73;100.00
54918;BME280;40818;50.562;7.454;2023-04-02T13:07:37;98107.31;;;4.56;100.00
54918;BME280;40818;50.562;7.454;2023-04-02T13:17:43;98112.75;;;4.47;100.00
54918;BME280;40818;50.562;7.454;2023-04-02T13:27:50;98122.50;;;4.62;100.00
54918;BME280;40818;50.562;7.454;2023-04-02T13:37:54;98129.75;;;4.51;100.00
54918;BME280;40818;50.562;7.454;2023-04-02T13:48:00;98133.84;;;4.82;100.00
54918;BME280;40818;50.562;7.454;2023-04-02T13:58:04;98138.00;;;4.86;100.00
54918;BME280;40818;50.562;7.454;2023-04-02T14:08:15;98150.03;;;4.60;100.00
54918;BME280;40818;50.562;7.454;2023-04-02T14:18:30;98172.00;;;4.43;100.00
54918;BME280;40818;50.562;7.454;2023-04-02T14:28:49;98184.22;;;4.62;100.00
54918;BME280;40818;50.562;7.454;2023-04-02T14:39:02;98201.69;;;4.52;100.00
54918;BME280;40818;50.562;7.454;2023-04-02T14:49:21;98209.53;;;4.49;100.00
54918;BME280;40818;50.562;7.454;2023-04-02T14:59:29;98224.00;;;4.52;100.00
54918;BME280;40818;50.562;7.454;2023-04-02T15:09:41;98228.31;;;4.51;100.00
54918;BME280;40818;50.562;7.454;2023-04-02T15:19:47;98231.16;;;4.94;100.00
54918;BME280;40818;50.562;7.454;2023-04-02T15:29:59;98242.91;;;4.76;100.00
54918;BME280;40818;50.562;7.454;2023-04-02T15:40:25;98255.53;;;4.84;100.00
54918;BME280;40818;50.562;7.454;2023-04-02T15:50:43;98263.75;;;4.68;100.00
54918;BME280;40818;50.562;7.454;2023-04-02T16:01:00;98288.19;;;4.55;100.00
54918;BME280;40818;50.562;7.454;2023-04-02T16:11:13;98310.78;;;4.45;100.00
54918;BME280;40818;50.562;7.454;2023-04-02T16:21:20;98324.88;;;4.03;100.00
54918;BME280;40818;50.562;7.454;2023-04-02T16:31:30;98356.25;;;3.85;100.00
54918;BME280;40818;50.562;7.454;2023-04-02T16:41:49;98371.06;;;3.44;100.00
54918;BME280;40818;50.562;7.454;2023-04-02T16:52:04;98381.31;;;3.11;100.00
54918;BME280;40818;50.562;7.454;2023-04-02T17:02:21;98403.00;;;2.97;100.00
54918;BME280;40818;50.562;7.454;2023-04-02T17:12:38;98420.22;;;2.92;100.00
54918;BME280;40818;50.562;7.454;2023-04-02T17:22:46;98439.06;;;2.53;100.00
54918;BME280;40818;50.562;7.454;2023-04-02T17:32:53;98452.91;;;2.43;100.00
54918;BME280;40818;50.562;7.454;2023-04-02T17:43:00;98474.41;;;2.37;100.00
54918;BME280;40818;50.562;7.454;2023-04-02T17:53:18;98493.97;;;1.98;100.00
54918;BME280;40818;50.562;7.454;2023-04-02T18:03:38;98509.38;;;1.93;100.00
54918;BME280;40818;50.562;7.454;2023-04-02T18:13:54;98525.00;;;1.79;100.00
54918;BME280;40818;50.562;7.454;2023-04-02T18:24:20;98532.66;;;1.82;100.00
54918;BME280;40818;50.562;7.454;2023-04-02T18:34:51;98549.66;;;1.85;100.00
54918;BME280;40818;50.562;7.454;2023-04-02T18:45:02;98565.84;;;1.87;100.00
54918;BME280;40818;50.562;7.454;2023-04-02T18:55:18;98574.31;;;1.92;100.00
54918;BME280;40818;50.562;7.454;2023-04-02T19:05:27;98593.88;;;1.96;100.00
54918;BME280;40818;50.562;7.454;2023-04-02T19:15:39;98610.00;;;2.00;100.00
54918;BME280;40818;50.562;7.454;2023-04-02T19:25:55;98621.94;;;2.02;100.00
54918;BME280;40818;50.562;7.454;2023-04-02T19:36:13;98625.28;;;2.08;100.00
54918;BME280;40818;50.562;7.454;2023-04-02T19:46:21;98638.88;;;2.10;100.00
54918;BME280;40818;50.562;7.454;2023-04-02T19:56:28;98638.06;;;2.08;100.00
54918;BME280;40818;50.562;7.454;2023-04-02T20:06:32;98664.47;;;2.11;100.00
54918;BME280;40818;50.562;7.454;2023-04-02T20:16:38;98676.31;;;2.20;100.00
54918;BME280;40818;50.562;7.454;2023-04-02T20:26:42;98683.91;;;2.25;100.00
54918;BME280;40818;50.562;7.454;2023-04-02T20:36:48;98686.56;;;2.20;100.00
54918;BME280;40818;50.562;7.454;2023-04-02T20:46:53;98696.06;;;2.12;100.00
54918;BME280;40818;50.562;7.454;2023-04-02T20:56:59;98704.84;;;1.97;100.00
54918;BME280;40818;50.562;7.454;2023-04-02T21:07:03;98715.88;;;1.99;100.00
54918;BME280;40818;50.562;7.454;2023-04-02T21:17:09;98728.91;;;1.83;100.00
54918;BME280;40818;50.562;7.454;2023-04-02T21:27:15;98741.84;;;1.73;99.52
54918;BME280;40818;50.562;7.454;2023-04-02T21:37:21;98751.34;;;1.66;100.00
54918;BME280;40818;50.562;7.454;2023-04-02T21:47:24;98746.25;;;1.66;100.00
54918;BME280;40818;50.562;7.454;2023-04-02T21:57:30;98738.59;;;1.64;100.00
54918;BME280;40818;50.562;7.454;2023-04-02T22:07:34;98733.50;;;1.60;100.00
54918;BME280;40818;50.562;7.454;2023-04-02T22:17:40;98736.19;;;1.49;98.34
54918;BME280;40818;50.562;7.454;2023-04-02T22:27:43;98739.66;;;1.43;98.70
54918;BME280;40818;50.562;7.454;2023-04-02T22:37:49;98749.91;;;1.46;100.00
54918;BME280;40818;50.562;7.454;2023-04-02T22:47:53;98747.31;;;1.48;100.00
54918;BME280;40818;50.562;7.454;2023-04-02T22:57:58;98751.47;;;1.55;100.00
54918;BME280;40818;50.562;7.454;2023-04-02T23:08:03;98763.34;;;1.61;100.00
54918;BME280;40818;50.562;7.454;2023-04-02T23:18:09;98771.88;;;1.61;100.00
54918;BME280;40818;50.562;7.454;2023-04-02T23:28:13;98775.25;;;1.65;100.00
54918;BME280;40818;50.562;7.454;2023-04-02T23:38:19;98776.09;;;1.65;100.00
54918;BME280;40818;50.562;7.454;2023-04-02T23:48:22;98772.66;;;1.66;100.00
54918;BME280;40818;50.562;7.454;2023-04-02T23:58:28;98776.97;;;1.63;100.00
